Time;durP1;ratioP1;P1;durP2;ratioP2;P2;SDS_P1;SDS_P2;PMS_P1;PMS_P2;Temp;Humidity;BMP_temperature;BMP_pressure;BME280_temperature;BME280_humidity;BME280_pressure;Samples;Min_cycle;Max_cycle;Signal;HPM_P1;HPM_P2
2022/03/22 00:00:08;;;;;;;50.63;33.90;;;5.50;99.90;;;;;;5090386;28;20418;-84
2022/03/22 00:02:34;;;;;;;49.38;33.25;;;5.50;99.90;;;;;;5088764;28;20035;-80
2022/03/22 00:04:59;;;;;;;53.92;34.78;;;5.50;99.90;;;;;;5088228;27;20035;-81
2022/03/22 00:07:27;;;;;;;49.88;33.05;;;5.50;99.90;;;;;;5092548;28;20043;-79
2022/03/22 00:09:53;;;;;;;60.40;33.92;;;5.40;99.90;;;;;;5090412;28;20039;-80
2022/03/22 00:12:19;;;;;;;49.33;33.40;;;5.40;99.90;;;;;;5113507;27;20094;-79
2022/03/22 00:14:45;;;;;;;54.90;33.83;;;5.40;99.90;;;;;;5101362;27;20119;-80
2022/03/22 00:17:11;;;;;;;54.25;34.38;;;5.40;99.90;;;;;;5103225;27;20051;-79
2022/03/22 00:19:37;;;;;;;50.72;32.55;;;5.30;99.90;;;;;;5110878;27;20043;-78
2022/03/22 00:22:03;;;;;;;53.40;33.28;;;5.30;99.90;;;;;;5106890;27;20422;-77
2022/03/22 00:24:30;;;;;;;56.45;36.15;;;5.30;99.90;;;;;;5109458;27;20051;-80
2022/03/22 00:26:55;;;;;;;48.42;34.05;;;5.30;99.90;;;;;;5102532;28;20043;-81
2022/03/22 00:29:21;;;;;;;49.40;33.95;;;5.30;99.90;;;;;;5105750;27;20058;-81
2022/03/22 00:31:47;;;;;;;53.72;34.92;;;5.30;99.90;;;;;;5086961;28;20042;-82
2022/03/22 00:34:13;;;;;;;52.50;34.20;;;5.30;99.90;;;;;;5087141;28;20040;-80
2022/03/22 00:36:40;;;;;;;59.70;35.20;;;5.40;99.90;;;;;;5106215;28;20039;-81
2022/03/22 00:39:05;;;;;;;54.28;34.30;;;5.30;99.90;;;;;;5106289;28;20046;-82
2022/03/22 00:41:31;;;;;;;58.92;35.25;;;5.30;99.90;;;;;;5090509;27;20036;-81
2022/03/22 00:43:57;;;;;;;53.78;34.92;;;5.40;99.90;;;;;;5105265;28;20043;-81
2022/03/22 00:46:23;;;;;;;55.13;35.08;;;5.30;99.90;;;;;;5089810;28;20101;-79
2022/03/22 00:48:49;;;;;;;57.88;35.67;;;5.40;99.90;;;;;;5103129;28;20160;-79
2022/03/22 00:51:15;;;;;;;54.92;36.30;;;5.40;99.90;;;;;;5086846;28;20074;-81
2022/03/22 00:53:41;;;;;;;50.28;34.80;;;5.30;99.90;;;;;;5098647;28;20475;-81
2022/03/22 00:56:08;;;;;;;52.33;34.85;;;5.30;99.90;;;;;;5103118;28;20048;-78
2022/03/22 00:58:34;;;;;;;58.33;35.55;;;5.30;99.90;;;;;;5109243;27;20042;-83
2022/03/22 01:01:01;;;;;;;54.03;36.17;;;5.30;99.90;;;;;;5117405;27;20043;-82
2022/03/22 01:03:28;;;;;;;56.45;35.65;;;5.30;99.90;;;;;;5099550;28;20035;-77
2022/03/22 01:05:55;;;;;;;55.20;35.70;;;5.30;99.90;;;;;;5121096;27;20035;-79
2022/03/22 01:08:23;;;;;;;59.22;37.40;;;5.30;99.90;;;;;;5113266;27;20118;-78
2022/03/22 01:10:55;;;;;;;61.85;35.42;;;5.30;99.90;;;;;;5097856;28;20071;-79
2022/03/22 01:13:27;;;;;;;61.13;36.67;;;5.40;99.90;;;;;;5096526;27;20058;-81
2022/03/22 01:15:53;;;;;;;50.88;36.17;;;5.40;99.90;;;;;;5096611;27;20079;-82
2022/03/22 01:18:19;;;;;;;57.83;37.10;;;5.50;99.90;;;;;;5096624;28;20063;-80
2022/03/22 01:20:49;;;;;;;52.80;34.92;;;5.50;99.90;;;;;;5115130;27;20112;-78
2022/03/22 01:23:15;;;;;;;64.07;36.90;;;5.50;99.90;;;;;;5119063;27;20039;-76
2022/03/22 01:25:43;;;;;;;52.00;35.75;;;5.50;99.90;;;;;;5100239;28;20229;-85
2022/03/22 01:28:12;;;;;;;55.75;35.88;;;5.60;99.90;;;;;;5082284;28;20036;-79
2022/03/22 01:30:38;;;;;;;54.72;36.40;;;5.60;99.90;;;;;;5115246;27;20039;-78
2022/03/22 01:33:05;;;;;;;51.97;34.83;;;5.60;99.90;;;;;;5098017;27;20092;-78
2022/03/22 01:35:32;;;;;;;55.38;36.05;;;5.60;99.90;;;;;;5114809;27;20441;-80
2022/03/22 01:37:58;;;;;;;53.83;35.83;;;5.60;99.90;;;;;;5118569;27;20039;-79
2022/03/22 01:40:27;;;;;;;54.97;35.80;;;5.60;99.90;;;;;;5111307;27;20035;-83
2022/03/22 01:42:53;;;;;;;53.80;35.92;;;5.60;99.90;;;;;;5093044;28;20453;-84
2022/03/22 01:45:19;;;;;;;58.65;36.15;;;5.60;99.90;;;;;;5109874;27;20378;-80
2022/03/22 01:47:46;;;;;;;55.95;35.90;;;5.60;99.90;;;;;;5109092;27;20031;-81
2022/03/22 01:50:14;;;;;;;52.13;35.97;;;5.70;99.90;;;;;;5116266;27;20050;-79
2022/03/22 01:52:42;;;;;;;53.03;36.05;;;5.70;99.90;;;;;;5111979;27;20158;-84
2022/03/22 01:55:09;;;;;;;59.55;36.88;;;5.70;99.90;;;;;;5100681;27;20046;-83
2022/03/22 01:57:35;;;;;;;53.45;35.53;;;5.70;99.90;;;;;;5111224;27;20039;-79
2022/03/22 02:00:07;;;;;;;57.58;35.03;;;5.70;99.90;;;;;;5097240;27;20084;-84
2022/03/22 02:08:10;;;;;;;56.28;36.20;;;5.70;99.90;;;;;;5104115;28;20050;-79
2022/03/22 02:10:37;;;;;;;54.17;36.78;;;5.70;99.90;;;;;;5101851;28;20243;-83
2022/03/22 02:13:04;;;;;;;54.17;36.80;;;5.60;99.90;;;;;;5098939;28;20055;-80
2022/03/22 02:15:30;;;;;;;55.83;37.50;;;5.70;99.90;;;;;;5110760;27;20048;-80
2022/03/22 02:17:56;;;;;;;53.85;36.53;;;5.60;99.90;;;;;;5118180;27;20049;-82
2022/03/22 02:20:22;;;;;;;58.38;37.03;;;5.60;99.90;;;;;;5110135;27;20412;-83
2022/03/22 02:23:06;;;;;;;56.42;36.53;;;5.50;99.90;;;;;;5112034;27;20141;-81
2022/03/22 02:25:35;;;;;;;55.92;37.38;;;5.50;99.90;;;;;;5108647;27;20035;-81
2022/03/22 02:28:03;;;;;;;57.42;37.25;;;5.50;99.90;;;;;;5115196;27;20038;-85
2022/03/22 02:30:29;;;;;;;56.28;38.15;;;5.50;99.90;;;;;;5112631;28;20129;-83
2022/03/22 02:32:59;;;;;;;57.42;36.15;;;5.50;99.90;;;;;;5110602;27;20044;-84
2022/03/22 02:35:25;;;;;;;57.95;37.53;;;5.50;99.90;;;;;;5112138;28;20070;-79
2022/03/22 02:37:52;;;;;;;60.67;39.28;;;5.60;99.90;;;;;;5109309;28;20055;-78
2022/03/22 02:40:18;;;;;;;59.65;40.42;;;5.70;99.90;;;;;;5105961;28;20050;-79
2022/03/22 02:42:50;;;;;;;64.00;39.30;;;5.70;99.90;;;;;;5106914;28;20459;-85
2022/03/22 02:45:18;;;;;;;58.75;39.47;;;5.70;99.90;;;;;;5103277;28;20061;-82
2022/03/22 02:47:44;;;;;;;65.85;38.78;;;5.70;99.90;;;;;;5102500;28;20119;-82
2022/03/22 02:50:11;;;;;;;59.47;38.65;;;5.70;99.90;;;;;;5108794;28;20047;-85
2022/03/22 02:52:38;;;;;;;60.53;38.42;;;5.70;99.90;;;;;;5101739;28;20460;-81
2022/03/22 02:55:06;;;;;;;60.30;38.15;;;5.70;99.90;;;;;;5110712;28;20042;-79
2022/03/22 02:57:32;;;;;;;62.17;38.08;;;5.70;99.90;;;;;;5084864;28;20478;-80
2022/03/22 02:59:58;;;;;;;56.60;37.60;;;5.60;99.90;;;;;;5109629;27;20031;-80
2022/03/22 03:02:24;;;;;;;57.15;37.17;;;5.60;99.90;;;;;;5114869;27;20469;-85
2022/03/22 03:04:50;;;;;;;64.05;37.83;;;5.60;99.90;;;;;;5113335;27;20035;-81
2022/03/22 03:07:15;;;;;;;58.97;38.10;;;5.50;99.90;;;;;;5098643;28;20055;-82
2022/03/22 03:09:41;;;;;;;55.03;37.60;;;5.50;99.90;;;;;;5115217;27;20105;-80
2022/03/22 03:12:07;;;;;;;57.80;38.15;;;5.40;99.90;;;;;;5099267;28;20051;-81
2022/03/22 03:14:39;;;;;;;59.83;38.10;;;5.40;99.90;;;;;;5123941;27;20108;-82
2022/03/22 03:17:10;;;;;;;55.92;38.08;;;5.30;99.90;;;;;;5140957;27;20505;-82
2022/03/22 03:19:36;;;;;;;55.95;36.90;;;5.30;99.90;;;;;;5103999;27;20049;-80
2022/03/22 03:22:03;;;;;;;56.72;37.05;;;5.30;99.90;;;;;;5105582;27;20122;-85
2022/03/22 03:24:30;;;;;;;61.80;38.08;;;5.30;99.90;;;;;;5101817;27;20042;-84
2022/03/22 03:26:56;;;;;;;59.15;38.63;;;5.30;99.90;;;;;;5125944;27;20086;-81
2022/03/22 03:29:22;;;;;;;69.72;37.72;;;5.20;99.90;;;;;;5117412;27;20170;-82
2022/03/22 03:31:48;;;;;;;58.88;37.80;;;5.30;99.90;;;;;;5125120;27;20161;-81
2022/03/22 03:34:14;;;;;;;60.83;37.95;;;5.30;99.90;;;;;;5136387;27;20050;-80
2022/03/22 03:36:40;;;;;;;56.60;37.15;;;5.20;99.90;;;;;;5103724;27;20058;-80
2022/03/22 03:39:06;;;;;;;55.92;38.17;;;5.40;99.90;;;;;;5103340;27;20183;-79
2022/03/22 03:47:10;;;;;;;65.38;38.10;;;5.40;99.90;;;;;;5121428;27;20039;-84
2022/03/22 03:49:37;;;;;;;57.60;38.35;;;5.40;99.90;;;;;;5109651;27;20050;-78
2022/03/22 03:52:24;;;;;;;59.10;38.72;;;5.50;99.90;;;;;;5115651;27;20474;-83
2022/03/22 03:54:52;;;;;;;55.88;37.97;;;5.50;99.90;;;;;;5099487;27;20042;-84
2022/03/22 03:57:18;;;;;;;54.90;36.85;;;5.50;99.90;;;;;;5099619;27;20131;-82
2022/03/22 03:59:44;;;;;;;56.83;37.90;;;5.50;99.90;;;;;;5124596;27;20051;-78
2022/03/22 04:02:11;;;;;;;55.08;36.85;;;5.40;99.90;;;;;;5117375;27;20046;-82
2022/03/22 04:04:38;;;;;;;59.53;38.90;;;5.40;99.90;;;;;;5122381;27;20374;-80
2022/03/22 04:07:07;;;;;;;57.72;37.70;;;5.40;99.90;;;;;;5136601;27;20063;-81
2022/03/22 04:09:34;;;;;;;61.47;38.15;;;5.40;99.90;;;;;;5102878;27;20070;-83
2022/03/22 04:12:00;;;;;;;58.67;39.15;;;5.40;99.90;;;;;;5097390;27;20066;-82
2022/03/22 04:14:27;;;;;;;59.45;38.20;;;5.50;99.90;;;;;;5124537;27;20471;-83
2022/03/22 04:16:53;;;;;;;63.05;38.40;;;5.40;99.90;;;;;;5116534;27;20047;-83
2022/03/22 04:19:19;;;;;;;57.92;38.40;;;5.50;99.90;;;;;;5114728;27;20045;-83
2022/03/22 04:21:45;;;;;;;62.42;39.53;;;5.50;99.90;;;;;;5102295;27;20473;-82
2022/03/22 04:24:29;;;;;;;60.55;38.22;;;5.50;99.90;;;;;;5124195;27;20031;-82
2022/03/22 04:32:41;;;;;;;58.27;37.67;;;5.50;99.90;;;;;;5099830;27;20035;-83
2022/03/22 04:32:42;;;;;;;57.03;37.57;;;5.50;99.90;;;;;;5119800;27;20062;-80
2022/03/22 04:35:09;;;;;;;57.38;38.42;;;5.50;99.90;;;;;;5111646;27;20782;-81
2022/03/22 04:37:36;;;;;;;64.20;39.38;;;5.50;99.90;;;;;;5103579;27;20114;-85
2022/03/22 04:40:02;;;;;;;55.90;37.67;;;5.40;99.90;;;;;;5111470;27;20038;-78
2022/03/22 04:42:28;;;;;;;61.38;38.92;;;5.50;99.90;;;;;;5105959;27;20035;-79
2022/03/22 04:44:54;;;;;;;57.58;37.85;;;5.50;99.90;;;;;;5129080;27;20027;-80
2022/03/22 04:47:19;;;;;;;56.03;38.30;;;5.40;99.90;;;;;;5121134;27;20039;-78
2022/03/22 04:49:45;;;;;;;62.05;38.95;;;5.40;99.90;;;;;;5110694;27;20063;-83
2022/03/22 04:57:39;;;;;;;54.22;37.90;;;5.40;99.90;;;;;;5118689;27;20081;-84
2022/03/22 05:00:06;;;;;;;59.47;37.75;;;5.30;99.90;;;;;;5112032;27;20075;-79
2022/03/22 05:02:32;;;;;;;63.55;37.75;;;5.30;99.90;;;;;;5114447;27;20070;-82
2022/03/22 05:05:00;;;;;;;62.22;39.22;;;5.20;99.90;;;;;;5100514;27;20041;-84
2022/03/22 05:07:26;;;;;;;59.08;36.92;;;5.20;99.90;;;;;;5120483;27;20035;-79
2022/03/22 05:09:52;;;;;;;63.50;38.67;;;5.10;99.90;;;;;;5117072;27;20027;-79
2022/03/22 05:12:18;;;;;;;59.22;37.90;;;5.10;99.90;;;;;;5120426;27;20493;-81
2022/03/22 05:14:45;;;;;;;59.88;38.88;;;5.10;99.90;;;;;;5094979;27;20403;-79
2022/03/22 05:17:11;;;;;;;54.22;37.10;;;5.10;99.90;;;;;;5102546;27;20047;-77
2022/03/22 05:19:38;;;;;;;57.75;37.63;;;5.10;99.90;;;;;;5097681;27;20046;-82
2022/03/22 05:22:04;;;;;;;62.28;37.72;;;5.00;99.90;;;;;;5124791;27;20476;-82
2022/03/22 05:24:30;;;;;;;54.45;37.30;;;5.00;99.90;;;;;;5119134;27;20398;-80
2022/03/22 05:26:56;;;;;;;60.85;37.63;;;4.90;99.90;;;;;;5105768;27;20026;-80
2022/03/22 05:29:22;;;;;;;58.20;37.70;;;4.90;99.90;;;;;;5104615;27;20034;-82
2022/03/22 05:31:47;;;;;;;56.83;36.95;;;4.90;99.90;;;;;;5094380;27;20051;-83
2022/03/22 05:34:13;;;;;;;60.67;38.65;;;4.80;99.90;;;;;;5130793;27;20122;-82
2022/03/22 05:36:39;;;;;;;59.47;37.67;;;4.80;99.90;;;;;;5127412;27;20059;-79
2022/03/22 05:39:05;;;;;;;53.33;36.40;;;4.80;99.90;;;;;;5113867;27;20106;-80
2022/03/22 05:41:30;;;;;;;61.42;37.38;;;4.80;99.90;;;;;;5106694;27;20050;-83
2022/03/22 05:43:56;;;;;;;58.40;37.05;;;4.80;99.90;;;;;;5097921;27;20138;-84
2022/03/22 05:46:22;;;;;;;56.40;37.33;;;4.80;99.90;;;;;;5111369;27;20043;-81
2022/03/22 05:48:48;;;;;;;60.45;36.90;;;4.80;99.90;;;;;;5099028;27;20039;-80
2022/03/22 05:51:16;;;;;;;54.53;37.67;;;4.80;99.90;;;;;;5096967;27;20070;-80
2022/03/22 05:53:46;;;;;;;59.85;38.38;;;4.70;99.90;;;;;;5132830;27;20049;-81
2022/03/22 05:56:12;;;;;;;59.40;37.47;;;4.80;99.90;;;;;;5117870;27;20043;-80
2022/03/22 05:58:38;;;;;;;55.10;37.15;;;4.90;99.90;;;;;;5121100;27;20050;-78
2022/03/22 06:01:05;;;;;;;62.58;38.33;;;4.80;99.90;;;;;;5116254;27;20521;-81
2022/03/22 06:03:33;;;;;;;60.47;39.25;;;4.90;99.90;;;;;;5101937;27;20427;-84
2022/03/22 06:05:59;;;;;;;62.92;38.88;;;4.90;99.90;;;;;;5119513;27;20079;-81
2022/03/22 06:08:24;;;;;;;63.28;40.28;;;5.00;99.90;;;;;;5121594;27;20126;-80
2022/03/22 06:10:50;;;;;;;56.45;37.97;;;5.10;99.90;;;;;;5110446;27;20135;-79
2022/03/22 06:13:16;;;;;;;66.25;40.08;;;5.10;99.90;;;;;;5121111;27;20043;-80
2022/03/22 06:15:43;;;;;;;62.35;39.17;;;5.20;99.90;;;;;;5102603;27;20509;-87
2022/03/22 06:18:11;;;;;;;46.58;29.85;;;5.30;99.90;;;;;;5100063;27;20148;-76
2022/03/22 06:20:41;;;;;;;58.60;30.45;;;5.40;99.90;;;;;;5095636;27;20040;-77
2022/03/22 06:23:10;;;;;;;53.58;35.40;;;7.50;99.90;;;;;;5098976;27;20436;-81
2022/03/22 06:25:36;;;;;;;60.63;37.15;;;6.90;99.90;;;;;;5092592;28;20103;-80
2022/03/22 06:28:04;;;;;;;52.67;36.30;;;6.70;99.90;;;;;;5087980;28;20358;-79
2022/03/22 06:30:30;;;;;;;62.47;36.45;;;6.60;99.90;;;;;;5113664;27;20431;-78
2022/03/22 06:32:58;;;;;;;57.10;36.30;;;6.50;99.90;;;;;;5114137;27;20043;-79
2022/03/22 06:35:28;;;;;;;59.22;37.58;;;6.40;99.90;;;;;;5092680;27;20062;-82
2022/03/22 06:37:55;;;;;;;57.55;36.70;;;6.40;99.90;;;;;;5097605;28;20130;-78
2022/03/22 06:40:23;;;;;;;55.67;36.15;;;6.40;99.90;;;;;;5094506;28;20466;-80
2022/03/22 06:42:49;;;;;;;57.28;37.33;;;6.40;99.90;;;;;;5115615;28;20122;-82
2022/03/22 06:45:16;;;;;;;55.05;35.92;;;6.30;99.90;;;;;;5095102;27;20043;-81
2022/03/22 06:47:42;;;;;;;56.88;36.10;;;6.30;99.90;;;;;;5113622;28;20035;-81
2022/03/22 06:50:10;;;;;;;56.45;36.83;;;6.30;99.90;;;;;;5115668;27;20134;-83
2022/03/22 06:52:36;;;;;;;57.38;37.15;;;6.40;99.90;;;;;;5102526;28;20114;-78
2022/03/22 06:55:04;;;;;;;58.92;36.83;;;6.40;99.90;;;;;;5105634;28;20126;-79
2022/03/22 06:57:31;;;;;;;59.22;36.67;;;6.40;99.90;;;;;;5087094;28;20505;-78
2022/03/22 06:59:58;;;;;;;53.05;37.08;;;6.50;99.90;;;;;;5108098;28;20035;-80
2022/03/22 07:02:24;;;;;;;54.97;35.70;;;6.60;99.90;;;;;;5107099;28;20390;-79
2022/03/22 07:04:50;;;;;;;56.30;37.67;;;6.60;99.90;;;;;;5107328;28;20031;-77
2022/03/22 07:07:16;;;;;;;60.50;36.58;;;6.70;99.90;;;;;;5106940;28;20038;-80
2022/03/22 07:09:45;;;;;;;60.03;36.55;;;6.70;99.90;;;;;;5092985;27;20047;-78
2022/03/22 07:12:13;;;;;;;57.80;36.00;;;6.80;99.90;;;;;;5118892;27;20047;-80
2022/03/22 07:14:40;;;;;;;59.15;36.78;;;6.90;99.90;;;;;;5108666;28;20128;-78
2022/03/22 07:17:08;;;;;;;69.22;37.03;;;7.00;99.90;;;;;;5117414;28;20050;-80
2022/03/22 07:19:34;;;;;;;64.18;37.83;;;7.00;99.90;;;;;;5102754;27;20043;-79
2022/03/22 07:22:01;;;;;;;64.20;37.50;;;7.10;99.90;;;;;;5090982;28;20137;-80
2022/03/22 07:24:27;;;;;;;58.65;36.95;;;7.20;99.90;;;;;;5108121;28;20059;-83
2022/03/22 07:26:52;;;;;;;57.50;36.15;;;7.30;99.90;;;;;;5102880;28;20043;-81
2022/03/22 07:29:18;;;;;;;57.80;35.53;;;7.30;99.90;;;;;;5092825;28;20047;-80
2022/03/22 07:31:44;;;;;;;54.88;35.72;;;7.40;99.90;;;;;;5092179;28;20129;-80
2022/03/22 07:34:14;;;;;;;56.10;37.25;;;7.40;99.90;;;;;;5122436;28;20027;-79
2022/03/22 07:36:40;;;;;;;52.78;35.92;;;7.40;99.90;;;;;;5089224;28;20160;-81
2022/03/22 07:39:11;;;;;;;54.08;36.10;;;7.50;99.90;;;;;;5088838;28;20047;-81
2022/03/22 07:41:38;;;;;;;53.47;36.70;;;7.50;99.90;;;;;;5113968;28;20055;-80
2022/03/22 07:44:06;;;;;;;52.83;36.63;;;7.60;99.90;;;;;;5111865;27;20043;-83
2022/03/22 07:46:33;;;;;;;61.33;36.65;;;7.70;99.90;;;;;;5120623;27;20039;-80
2022/03/22 07:52:58;;;;;;;58.28;36.95;;;7.70;99.90;;;;;;5132053;27;20443;-81
2022/03/22 07:54:30;;;;;;;52.22;35.65;;;8.00;99.90;;;;;;5112020;27;20100;-79
2022/03/22 07:56:57;;;;;;;60.33;35.35;;;8.10;99.90;;;;;;5097856;27;20043;-79
2022/03/22 07:59:24;;;;;;;52.38;35.28;;;8.20;99.90;;;;;;5115669;27;20047;-79
2022/03/22 08:01:51;;;;;;;53.88;34.88;;;8.40;99.90;;;;;;5097229;27;20055;-78
2022/03/22 08:04:17;;;;;;;50.17;33.22;;;8.60;99.90;;;;;;5117683;27;20074;-80
2022/03/22 08:06:44;;;;;;;54.13;33.08;;;8.70;99.90;;;;;;5113225;27;20443;-78
2022/03/22 08:09:10;;;;;;;50.10;33.67;;;9.00;99.90;;;;;;5116065;27;20058;-81
2022/03/22 08:11:36;;;;;;;49.08;31.75;;;9.10;99.90;;;;;;5099945;27;20054;-80
2022/03/22 08:14:04;;;;;;;47.60;32.08;;;9.30;99.90;;;;;;5103448;27;20482;-81
2022/03/22 08:16:31;;;;;;;46.70;30.55;;;9.40;99.90;;;;;;5139389;27;20103;-81
2022/03/22 08:18:57;;;;;;;49.65;32.05;;;9.50;99.90;;;;;;5084946;27;20159;-80
2022/03/22 08:21:22;;;;;;;48.25;31.02;;;9.60;99.90;;;;;;5141600;27;20034;-80
2022/03/22 08:23:48;;;;;;;49.15;30.65;;;9.60;99.90;;;;;;5118512;27;20054;-81
2022/03/22 08:26:14;;;;;;;47.00;31.17;;;9.70;99.90;;;;;;5135750;27;20034;-82
2022/03/22 08:28:42;;;;;;;44.03;30.92;;;9.70;99.90;;;;;;5123549;27;20431;-80
2022/03/22 08:31:10;;;;;;;44.25;30.50;;;9.80;99.90;;;;;;5111147;27;20066;-84
2022/03/22 08:33:36;;;;;;;46.40;31.23;;;9.80;99.90;;;;;;5132303;27;20445;-82
2022/03/22 08:36:02;;;;;;;42.85;30.92;;;9.90;99.90;;;;;;5113654;27;20535;-81
2022/03/22 08:38:28;;;;;;;50.72;31.05;;;10.00;99.90;;;;;;5107587;27;20056;-79
2022/03/22 08:40:56;;;;;;;43.45;31.40;;;10.10;99.90;;;;;;5113420;27;20402;-81
2022/03/22 08:43:25;;;;;;;54.00;32.33;;;10.20;99.90;;;;;;5081707;27;20039;-78
2022/03/22 08:45:52;;;;;;;45.70;31.55;;;10.40;99.90;;;;;;5107336;27;20075;-79
2022/03/22 08:48:18;;;;;;;47.35;31.05;;;10.40;99.90;;;;;;5094673;27;20478;-80
2022/03/22 08:50:48;;;;;;;44.15;31.17;;;10.50;99.90;;;;;;5128464;27;20043;-83
2022/03/22 08:53:16;;;;;;;47.05;30.05;;;10.70;99.90;;;;;;5113473;27;20130;-80
2022/03/22 08:55:46;;;;;;;45.63;29.50;;;10.90;99.90;;;;;;5113237;27;20055;-81
2022/03/22 08:58:12;;;;;;;47.10;29.25;;;11.00;99.90;;;;;;5114357;27;20068;-78
2022/03/22 09:00:38;;;;;;;45.63;28.63;;;11.10;99.90;;;;;;5114656;27;20512;-80
2022/03/22 09:03:05;;;;;;;45.47;29.63;;;11.20;99.90;;;;;;5112158;27;20043;-78
2022/03/22 09:08:16;;;;;;;41.55;29.80;;;11.50;99.90;;;;;;5112784;27;20115;-81
2022/03/22 09:10:43;;;;;;;44.65;29.98;;;11.60;99.90;;;;;;5087304;27;20166;-80
2022/03/22 09:13:09;;;;;;;42.65;29.52;;;11.70;99.90;;;;;;5124418;27;20493;-78
2022/03/22 09:15:37;;;;;;;45.75;29.85;;;11.90;99.90;;;;;;5088401;27;20047;-83
2022/03/22 09:18:04;;;;;;;43.45;29.85;;;12.00;99.90;;;;;;5108594;27;20049;-83
2022/03/22 09:20:33;;;;;;;48.25;30.20;;;12.10;99.90;;;;;;5117245;27;20107;-80
2022/03/22 09:23:01;;;;;;;44.17;30.20;;;12.20;99.90;;;;;;5095175;27;20058;-81
2022/03/22 09:25:29;;;;;;;42.05;29.88;;;12.30;99.90;;;;;;5113710;27;20073;-84
2022/03/22 09:27:56;;;;;;;44.45;28.98;;;12.30;99.90;;;;;;5113632;27;20083;-81
2022/03/22 09:30:22;;;;;;;40.17;29.27;;;12.40;99.90;;;;;;5095218;27;20051;-79
2022/03/22 09:32:47;;;;;;;41.33;29.33;;;12.50;99.90;;;;;;5095384;27;20047;-83
2022/03/22 09:35:19;;;;;;;43.53;29.05;;;12.50;99.90;;;;;;5113925;27;20039;-82
2022/03/22 09:37:46;;;;;;;41.50;29.60;;;12.70;99.90;;;;;;5132461;27;20035;-81
2022/03/22 09:40:14;;;;;;;41.72;29.05;;;12.80;99.90;;;;;;5078584;27;20054;-81
2022/03/22 09:42:45;;;;;;;49.95;29.67;;;12.80;99.90;;;;;;5095459;27;20050;-82
2022/03/22 09:45:14;;;;;;;43.13;28.55;;;12.80;99.90;;;;;;5110470;27;20047;-83
2022/03/22 09:47:42;;;;;;;42.45;28.60;;;13.00;99.90;;;;;;5110715;27;20039;-82
2022/03/22 09:50:10;;;;;;;41.13;28.70;;;13.00;99.90;;;;;;5095768;27;20402;-82
2022/03/22 09:52:36;;;;;;;41.83;28.88;;;13.10;99.90;;;;;;5111919;27;20046;-81
2022/03/22 09:55:07;;;;;;;44.25;30.08;;;13.10;99.90;;;;;;5112226;27;20091;-83
2022/03/22 09:57:34;;;;;;;43.47;29.20;;;13.20;99.90;;;;;;5111494;27;20089;-83
2022/03/22 10:00:00;;;;;;;41.22;27.30;;;13.30;99.90;;;;;;5095334;27;20054;-80
2022/03/22 10:02:27;;;;;;;40.22;27.40;;;13.40;99.90;;;;;;5110472;27;20426;-81
2022/03/22 10:04:53;;;;;;;42.28;27.52;;;13.50;99.90;;;;;;5077329;27;20039;-81
2022/03/22 10:07:20;;;;;;;43.60;28.17;;;13.50;99.90;;;;;;5130853;27;20402;-81
2022/03/22 10:09:55;;;;;;;41.85;28.42;;;13.70;99.90;;;;;;5092721;27;20406;-81
2022/03/22 10:12:34;;;;;;;39.83;28.13;;;13.80;99.90;;;;;;5111736;27;20466;-80
2022/03/22 10:15:07;;;;;;;39.55;27.55;;;13.80;99.90;;;;;;5110890;27;20062;-81
2022/03/22 10:17:32;;;;;;;42.67;27.08;;;14.10;99.90;;;;;;5094754;27;20395;-84
2022/03/22 10:19:58;;;;;;;36.25;26.00;;;14.30;99.90;;;;;;5112594;27;20125;-80
2022/03/22 10:22:25;;;;;;;38.38;26.40;;;14.40;99.90;;;;;;5111259;27;20039;-83
2022/03/22 10:24:55;;;;;;;40.47;25.08;;;14.50;99.90;;;;;;5111881;27;20050;-83
2022/03/22 10:27:37;;;;;;;41.63;24.55;;;14.80;99.90;;;;;;5093366;27;20142;-80
2022/03/22 10:30:06;;;;;;;34.70;24.40;;;15.10;99.90;;;;;;5093331;28;20475;-82
2022/03/22 10:32:37;;;;;;;39.25;24.17;;;15.30;99.90;;;;;;5111567;27;20077;-83
2022/03/22 10:35:19;;;;;;;36.65;23.95;;;15.60;99.90;;;;;;5095352;27;20058;-81
2022/03/22 10:37:46;;;;;;;40.05;23.63;;;15.90;99.90;;;;;;5093034;28;20399;-82
2022/03/22 10:40:40;;;;;;;36.58;23.73;;;16.00;99.90;;;;;;5110821;28;20043;-85
2022/03/22 10:43:15;;;;;;;35.25;23.30;;;16.30;99.90;;;;;;5094986;28;20130;-84
2022/03/22 10:46:02;;;;;;;35.47;24.55;;;16.60;99.90;;;;;;5130168;28;20042;-81
2022/03/22 10:48:32;;;;;;;40.20;25.52;;;16.70;99.90;;;;;;5091813;28;20070;-82
2022/03/22 10:50:59;;;;;;;37.47;25.10;;;16.90;99.90;;;;;;5112815;28;20055;-86
2022/03/22 10:53:27;;;;;;;35.10;24.63;;;17.10;99.90;;;;;;5111094;28;20062;-86
2022/03/22 10:55:54;;;;;;;35.63;24.13;;;17.30;99.90;;;;;;5105876;28;20055;-84
2022/03/22 10:58:25;;;;;;;37.28;23.95;;;17.40;99.90;;;;;;5097982;28;20051;-82
2022/03/22 11:00:53;;;;;;;34.17;24.65;;;17.40;99.90;;;;;;5104247;28;20067;-81
2022/03/22 11:03:19;;;;;;;35.83;24.67;;;17.60;99.90;;;;;;5107784;28;20049;-79
2022/03/22 11:05:48;;;;;;;35.95;24.67;;;17.70;99.90;;;;;;5095457;28;20082;-81
2022/03/22 11:08:18;;;;;;;36.17;24.83;;;17.90;99.90;;;;;;5114372;28;20124;-86
2022/03/22 11:10:44;;;;;;;41.08;24.48;;;18.00;99.90;;;;;;5107010;28;20051;-81
2022/03/22 11:13:10;;;;;;;31.25;24.88;;;18.30;99.90;;;;;;5105339;28;20047;-82
2022/03/22 11:15:40;;;;;;;31.77;24.00;;;18.50;99.90;;;;;;5095582;28;20043;-83
2022/03/22 11:18:07;;;;;;;34.08;23.98;;;18.70;99.90;;;;;;5114222;27;20051;-82
2022/03/22 11:20:56;;;;;;;34.08;22.25;;;18.60;99.90;;;;;;5118322;27;20469;-84
2022/03/22 11:23:28;;;;;;;32.55;23.48;;;18.90;99.90;;;;;;5118130;27;20115;-81
2022/03/22 11:25:54;;;;;;;32.17;23.75;;;19.20;99.90;;;;;;5117834;27;20103;-78
2022/03/22 11:28:23;;;;;;;30.13;21.85;;;19.30;99.90;;;;;;5131383;27;20031;-78
2022/03/22 11:30:51;;;;;;;31.30;22.25;;;19.40;99.90;;;;;;5121194;27;20508;-76
2022/03/22 11:36:17;;;;;;;31.15;22.85;;;19.70;99.90;;;;;;5116860;27;20413;-77
2022/03/22 11:38:46;;;;;;;30.25;22.40;;;19.40;98.10;;;;;;5099695;27;20039;-80
2022/03/22 11:44:12;;;;;;;34.45;22.92;;;19.70;99.30;;;;;;5119858;27;20092;-79
2022/03/22 11:46:38;;;;;;;32.13;22.95;;;19.80;99.70;;;;;;5095254;27;20122;-79
2022/03/22 11:49:16;;;;;;;31.38;22.60;;;19.70;98.40;;;;;;5117871;27;20454;-83
2022/03/22 11:51:52;;;;;;;31.17;22.13;;;19.80;98.50;;;;;;5110848;27;20078;-83
2022/03/22 11:54:19;;;;;;;33.40;22.85;;;20.00;98.70;;;;;;5094759;27;20080;-77
2022/03/22 11:57:15;;;;;;;37.40;23.10;;;20.30;99.20;;;;;;5140504;27;20431;-86
2022/03/22 11:59:43;;;;;;;34.38;23.13;;;20.10;97.20;;;;;;5104893;27;20047;-83
2022/03/22 12:02:15;;;;;;;36.60;23.67;;;20.40;98.80;;;;;;5128638;27;20171;-80
2022/03/22 12:04:50;;;;;;;33.72;22.83;;;20.60;96.60;;;;;;5147122;27;20039;-82
2022/03/22 12:07:31;;;;;;;32.08;23.17;;;20.70;97.10;;;;;;5139485;27;20031;-82
2022/03/22 12:10:08;;;;;;;38.45;23.70;;;20.60;95.20;;;;;;5104086;27;20107;-80
2022/03/22 12:12:36;;;;;;;31.67;22.98;;;20.60;93.30;;;;;;5119956;27;20058;-78
2022/03/22 12:15:05;;;;;;;33.60;22.92;;;20.60;96.70;;;;;;5144108;27;20104;-79
2022/03/22 12:17:31;;;;;;;32.78;23.23;;;20.50;95.20;;;;;;5121399;27;20087;-83
2022/03/22 12:20:01;;;;;;;33.15;23.23;;;21.10;98.30;;;;;;5119791;27;20095;-79
2022/03/22 12:22:29;;;;;;;35.22;23.52;;;21.30;97.00;;;;;;5119548;27;20059;-78
2022/03/22 12:24:58;;;;;;;36.38;24.30;;;21.20;96.00;;;;;;5115586;27;20051;-82
2022/03/22 12:27:24;;;;;;;37.42;22.85;;;21.10;94.60;;;;;;5115036;27;20043;-80
2022/03/22 12:29:52;;;;;;;34.25;23.35;;;21.60;97.00;;;;;;5101533;27;20139;-78
2022/03/22 12:32:21;;;;;;;33.55;22.67;;;21.60;96.70;;;;;;5122947;27;20055;-83
2022/03/22 12:34:48;;;;;;;33.53;22.92;;;21.80;96.20;;;;;;5117842;27;20035;-80
2022/03/22 12:37:15;;;;;;;30.77;22.70;;;22.00;96.10;;;;;;5098801;27;20047;-84
2022/03/22 12:39:43;;;;;;;35.72;22.67;;;22.20;96.00;;;;;;5118653;27;20200;-79
2022/03/22 12:42:11;;;;;;;31.55;23.17;;;22.40;95.00;;;;;;5121728;27;20051;-81
2022/03/22 12:44:37;;;;;;;35.22;23.00;;;22.20;91.30;;;;;;5129110;27;20043;-81
2022/03/22 12:47:07;;;;;;;36.78;22.25;;;22.30;93.10;;;;;;5125298;27;20042;-83
2022/03/22 12:49:39;;;;;;;35.13;22.75;;;22.40;94.70;;;;;;5097776;27;20051;-84
2022/03/22 12:52:08;;;;;;;35.25;23.13;;;22.40;93.00;;;;;;5099057;27;20047;-82
2022/03/22 12:54:35;;;;;;;32.35;22.52;;;22.20;91.40;;;;;;5096710;27;20053;-85
2022/03/22 12:57:05;;;;;;;32.80;22.95;;;22.80;92.50;;;;;;5115292;27;20141;-79
2022/03/22 12:59:30;;;;;;;31.67;21.65;;;23.00;92.90;;;;;;5114027;27;20385;-78
2022/03/22 13:01:58;;;;;;;34.67;23.30;;;23.40;93.70;;;;;;5110891;27;20051;-80
2022/03/22 13:04:26;;;;;;;33.88;23.25;;;23.10;91.90;;;;;;5107119;27;20047;-81
2022/03/22 13:07:00;;;;;;;34.22;21.55;;;23.00;90.70;;;;;;5110935;27;20037;-83